createdAt,value
2023-07-12T00:00:11.958Z,0
2023-07-12T00:01:28.064Z,0
2023-07-12T00:02:44.142Z,0
2023-07-12T00:04:00.248Z,0
2023-07-12T00:05:16.341Z,0
2023-07-12T00:06:32.427Z,0
2023-07-12T00:07:48.521Z,0
2023-07-12T00:09:04.604Z,0
2023-07-12T00:10:20.705Z,0
2023-07-12T00:11:36.805Z,0
2023-07-12T00:12:53.007Z,0
2023-07-12T00:14:08.190Z,0
2023-07-12T00:15:24.235Z,0
2023-07-12T00:16:40.283Z,0
2023-07-12T00:17:56.304Z,0
2023-07-12T00:19:12.348Z,0
2023-07-12T00:20:28.386Z,0
2023-07-12T00:21:44.417Z,0
2023-07-12T00:23:00.466Z,0
2023-07-12T00:24:16.508Z,0
2023-07-12T00:25:32.545Z,0
2023-07-12T00:26:48.583Z,0
2023-07-12T00:28:04.627Z,0
2023-07-12T00:29:20.659Z,0
2023-07-12T00:30:36.703Z,0
2023-07-12T00:31:52.750Z,0
2023-07-12T00:33:08.794Z,0
2023-07-12T00:34:24.841Z,0
2023-07-12T00:35:40.876Z,0
2023-07-12T00:36:56.914Z,0
2023-07-12T00:38:12.966Z,0
2023-07-12T00:39:29.018Z,0
2023-07-12T00:40:45.062Z,0
2023-07-12T00:42:01.107Z,0
2023-07-12T00:43:17.153Z,0
2023-07-12T00:44:33.185Z,0
2023-07-12T00:45:49.299Z,0
2023-07-12T00:47:05.407Z,0
2023-07-12T00:48:21.494Z,0
2023-07-12T00:49:37.604Z,0
2023-07-12T00:50:53.720Z,0
2023-07-12T00:52:09.829Z,0
2023-07-12T00:53:25.943Z,0
2023-07-12T00:54:42.055Z,0
2023-07-12T00:55:58.160Z,0
2023-07-12T00:57:14.260Z,0
2023-07-12T00:58:30.380Z,0
2023-07-12T00:59:46.479Z,0
2023-07-12T01:01:02.587Z,0
2023-07-12T01:02:18.809Z,0
2023-07-12T01:03:34.014Z,0
2023-07-12T01:04:50.065Z,0
2023-07-12T01:06:06.117Z,0
2023-07-12T01:07:22.184Z,0
2023-07-12T01:08:38.222Z,0
2023-07-12T01:09:54.272Z,0
2023-07-12T01:11:10.317Z,0
2023-07-12T01:12:26.363Z,0
2023-07-12T01:13:42.425Z,0
2023-07-12T01:14:58.466Z,0
2023-07-12T01:16:14.509Z,0
2023-07-12T01:17:30.549Z,0
2023-07-12T01:18:46.594Z,0
2023-07-12T01:20:02.634Z,0
2023-07-12T01:21:18.670Z,0
2023-07-12T01:22:34.715Z,0
2023-07-12T01:23:50.768Z,0
2023-07-12T01:25:06.815Z,0
2023-07-12T01:26:22.843Z,0
2023-07-12T01:27:38.904Z,0
2023-07-12T01:28:54.947Z,0
2023-07-12T01:30:11.000Z,0
2023-07-12T01:31:27.031Z,0
2023-07-12T01:32:43.078Z,0
2023-07-12T01:33:59.134Z,0
2023-07-12T01:35:15.236Z,0
2023-07-12T01:36:31.344Z,0
2023-07-12T01:37:47.460Z,0
2023-07-12T01:39:03.551Z,0
2023-07-12T01:40:19.662Z,0
2023-07-12T01:41:35.773Z,0
2023-07-12T01:42:51.872Z,0
2023-07-12T01:44:07.959Z,0
2023-07-12T01:45:24.076Z,0
2023-07-12T01:46:40.169Z,0
2023-07-12T01:47:56.281Z,0
2023-07-12T01:49:12.387Z,0
2023-07-12T01:50:28.489Z,0
2023-07-12T01:51:44.674Z,0
2023-07-12T01:52:59.880Z,0
2023-07-12T01:54:15.937Z,0
2023-07-12T01:55:31.969Z,0
2023-07-12T01:56:48.013Z,0
2023-07-12T01:58:04.065Z,0
2023-07-12T01:59:20.096Z,0
2023-07-12T02:00:36.163Z,0
2023-07-12T02:01:52.200Z,0
2023-07-12T02:03:08.251Z,0
2023-07-12T02:04:24.300Z,0
2023-07-12T02:05:40.331Z,0
2023-07-12T02:06:56.382Z,0
2023-07-12T02:08:12.418Z,0
2023-07-12T02:09:28.463Z,0
2023-07-12T02:10:44.515Z,0
2023-07-12T02:12:00.560Z,0
2023-07-12T02:13:16.605Z,0
2023-07-12T02:14:32.636Z,0
2023-07-12T02:15:48.680Z,0
2023-07-12T02:17:04.725Z,0
2023-07-12T02:18:20.771Z,0
2023-07-12T02:19:36.823Z,0
2023-07-12T02:20:52.852Z,0
2023-07-12T02:22:08.913Z,0
2023-07-12T02:23:24.956Z,0
2023-07-12T02:24:41.073Z,0
2023-07-12T02:25:57.182Z,0
2023-07-12T02:27:13.274Z,0
2023-07-12T02:28:29.385Z,0
2023-07-12T02:29:45.497Z,0
2023-07-12T02:31:01.594Z,0
2023-07-12T02:32:17.703Z,0
2023-07-12T02:33:33.804Z,0
2023-07-12T02:34:49.907Z,0
2023-07-12T02:36:06.006Z,0
2023-07-12T02:37:22.130Z,0
2023-07-12T02:38:38.217Z,0
2023-07-12T02:39:54.338Z,0
2023-07-12T02:41:10.546Z,0
2023-07-12T02:42:25.816Z,0
2023-07-12T02:43:41.913Z,0
2023-07-12T02:44:58.016Z,0
2023-07-12T02:46:14.111Z,0
2023-07-12T02:47:30.214Z,0
2023-07-12T02:48:46.315Z,0
2023-07-12T02:50:02.410Z,0
2023-07-12T02:51:18.517Z,0
2023-07-12T02:52:34.621Z,0
2023-07-12T02:53:50.727Z,0
2023-07-12T02:55:06.829Z,0
2023-07-12T02:56:22.947Z,0
2023-07-12T02:57:39.047Z,0
2023-07-12T02:58:55.148Z,0
2023-07-12T03:00:11.242Z,0
2023-07-12T03:01:27.351Z,0
2023-07-12T03:02:43.452Z,0
2023-07-12T03:03:59.561Z,0
2023-07-12T03:05:15.653Z,0
2023-07-12T03:06:31.763Z,0
2023-07-12T03:07:47.865Z,0
2023-07-12T03:09:03.980Z,0
2023-07-12T03:10:20.081Z,0
2023-07-12T03:11:36.191Z,0
2023-07-12T03:12:52.284Z,0
2023-07-12T03:14:08.512Z,0
2023-07-12T03:15:23.702Z,0
2023-07-12T03:16:39.741Z,0
2023-07-12T03:17:55.794Z,0
2023-07-12T03:19:11.838Z,0
2023-07-12T03:20:27.869Z,0
2023-07-12T03:21:43.917Z,0
2023-07-12T03:22:59.969Z,0
2023-07-12T03:24:15.999Z,0
2023-07-12T03:25:32.042Z,0
2023-07-12T03:26:48.101Z,0
2023-07-12T03:28:04.146Z,0
2023-07-12T03:29:20.189Z,0
2023-07-12T03:30:36.235Z,0
2023-07-12T03:31:52.280Z,0
2023-07-12T03:33:08.319Z,0
2023-07-12T03:34:24.374Z,0
2023-07-12T03:35:40.426Z,0
2023-07-12T03:36:56.461Z,0
2023-07-12T03:38:12.512Z,0
2023-07-12T03:39:28.550Z,0
2023-07-12T03:40:44.595Z,0
2023-07-12T03:42:00.639Z,0
2023-07-12T03:43:16.678Z,0
2023-07-12T03:44:32.731Z,0
2023-07-12T03:45:48.767Z,0
2023-07-12T03:47:04.862Z,0
2023-07-12T03:48:20.967Z,0
2023-07-12T03:49:37.078Z,0
2023-07-12T03:50:53.180Z,0
2023-07-12T03:52:09.271Z,0
2023-07-12T03:53:25.369Z,0
2023-07-12T03:54:41.472Z,0
2023-07-12T03:55:57.573Z,0
2023-07-12T03:57:13.674Z,0
2023-07-12T03:58:29.782Z,0
2023-07-12T03:59:45.891Z,0
2023-07-12T04:01:01.986Z,0
2023-07-12T04:02:17.113Z,0
2023-07-12T04:03:33.150Z,0
2023-07-12T04:04:49.202Z,0
2023-07-12T04:06:05.235Z,0
2023-07-12T04:07:21.281Z,0
2023-07-12T04:08:37.329Z,0
2023-07-12T04:09:53.373Z,0
2023-07-12T04:11:09.426Z,0
2023-07-12T04:12:25.464Z,0
2023-07-12T04:13:41.517Z,0
2023-07-12T04:14:57.561Z,0
2023-07-12T04:16:13.613Z,0
2023-07-12T04:17:29.650Z,0
2023-07-12T04:18:45.686Z,0
2023-07-12T04:20:01.726Z,0
2023-07-12T04:21:17.786Z,0
2023-07-12T04:22:33.823Z,0
2023-07-12T04:23:49.861Z,0
2023-07-12T04:25:05.906Z,0
2023-07-12T04:26:21.949Z,0
2023-07-12T04:27:38.004Z,0
2023-07-12T04:28:54.034Z,0
2023-07-12T04:30:10.079Z,0
2023-07-12T04:31:26.148Z,0
2023-07-12T04:32:42.184Z,0
2023-07-12T04:33:58.291Z,0
2023-07-12T04:35:14.393Z,0
2023-07-12T04:36:30.487Z,0
2023-07-12T04:37:46.585Z,0
2023-07-12T04:39:02.704Z,0
2023-07-12T04:40:18.810Z,0
2023-07-12T04:41:34.921Z,0
2023-07-12T04:42:51.030Z,0
2023-07-12T04:44:07.141Z,0
2023-07-12T04:45:23.247Z,0
2023-07-12T04:46:39.356Z,0
2023-07-12T04:47:55.454Z,0
2023-07-12T04:49:11.564Z,0
2023-07-12T04:50:27.772Z,0
2023-07-12T04:51:42.978Z,0
2023-07-12T04:52:59.008Z,0
2023-07-12T04:54:15.060Z,0
2023-07-12T04:55:31.105Z,0
2023-07-12T04:56:47.151Z,0
2023-07-12T04:58:03.195Z,0
2023-07-12T04:59:19.246Z,0
2023-07-12T05:00:35.299Z,0
2023-07-12T05:01:51.336Z,0
2023-07-12T05:03:07.392Z,0
2023-07-12T05:04:23.434Z,0
2023-07-12T05:05:39.495Z,5
2023-07-12T05:06:55.539Z,5
2023-07-12T05:08:11.597Z,5
2023-07-12T05:09:27.649Z,5
2023-07-12T05:10:43.701Z,5
2023-07-12T05:11:59.759Z,5
2023-07-12T05:13:15.819Z,5
2023-07-12T05:14:31.863Z,5
2023-07-12T05:15:47.918Z,5
2023-07-12T05:17:03.968Z,5
2023-07-12T05:18:20.005Z,5
2023-07-12T05:19:36.064Z,5
2023-07-12T05:20:52.000Z,5
2023-07-12T05:22:08.161Z,5
2023-07-12T05:23:24.271Z,5
2023-07-12T05:24:40.374Z,5
2023-07-12T05:25:56.493Z,5
2023-07-12T05:27:12.605Z,5
2023-07-12T05:28:28.704Z,5
2023-07-12T05:29:44.812Z,5
2023-07-12T05:31:00.915Z,5
2023-07-12T05:32:17.029Z,5
2023-07-12T05:33:33.124Z,5
2023-07-12T05:34:49.225Z,0
2023-07-12T05:36:05.348Z,5
2023-07-12T05:37:21.457Z,0
2023-07-12T05:38:37.562Z,0
2023-07-12T05:39:53.767Z,0
2023-07-12T05:41:08.977Z,0
2023-07-12T05:42:25.022Z,0
2023-07-12T05:43:41.065Z,0
2023-07-12T05:44:57.118Z,5
2023-07-12T05:46:13.164Z,5
2023-07-12T05:47:29.216Z,11
2023-07-12T05:48:45.267Z,11
2023-07-12T05:50:01.312Z,11
2023-07-12T05:51:17.350Z,11
2023-07-12T05:52:33.416Z,5
2023-07-12T05:53:49.448Z,5
2023-07-12T05:55:05.515Z,5
2023-07-12T05:56:21.561Z,5
2023-07-12T05:57:37.610Z,5
2023-07-12T05:58:53.669Z,5
2023-07-12T06:00:09.714Z,5
2023-07-12T06:01:25.780Z,5
2023-07-12T06:02:41.840Z,5
2023-07-12T06:03:57.877Z,0
2023-07-12T06:05:13.930Z,5
2023-07-12T06:06:29.983Z,5
2023-07-12T06:07:46.038Z,5
2023-07-12T06:09:02.085Z,0
2023-07-12T06:10:18.138Z,5
2023-07-12T06:11:34.190Z,5
2023-07-12T06:12:50.291Z,5
2023-07-12T06:14:06.414Z,16
2023-07-12T06:15:22.522Z,16
2023-07-12T06:16:38.619Z,16
2023-07-12T06:17:54.738Z,16
2023-07-12T06:19:10.837Z,16
2023-07-12T06:20:26.927Z,16
2023-07-12T06:21:43.051Z,16
2023-07-12T06:22:59.147Z,16
2023-07-12T06:24:15.249Z,16
2023-07-12T06:25:31.354Z,16
2023-07-12T06:26:47.455Z,16
2023-07-12T06:28:03.565Z,16
2023-07-12T06:29:19.786Z,16
2023-07-12T06:30:35.041Z,16
2023-07-12T06:31:51.142Z,16
2023-07-12T06:33:06.262Z,16
2023-07-12T06:35:38.344Z,16
2023-07-12T06:36:54.396Z,16
2023-07-12T06:38:10.426Z,16
2023-07-12T06:39:26.474Z,16
2023-07-12T06:40:42.532Z,16
2023-07-12T06:41:58.569Z,16
2023-07-12T06:43:14.630Z,16
2023-07-12T06:44:30.664Z,16
2023-07-12T06:45:46.732Z,22
2023-07-12T06:47:02.782Z,22
2023-07-12T06:48:18.830Z,16
2023-07-12T06:49:34.862Z,22
2023-07-12T06:50:50.932Z,22
2023-07-12T06:52:06.985Z,22
2023-07-12T06:53:23.029Z,22
2023-07-12T06:54:39.080Z,22
2023-07-12T06:55:55.147Z,22
2023-07-12T06:57:11.192Z,22
2023-07-12T06:58:27.251Z,22
2023-07-12T06:59:43.296Z,22
2023-07-12T07:00:59.341Z,22
2023-07-12T07:02:15.393Z,16
2023-07-12T07:03:31.452Z,22
2023-07-12T07:04:47.574Z,22
2023-07-12T07:06:03.687Z,22
2023-07-12T07:07:19.800Z,16
2023-07-12T07:08:35.914Z,22
2023-07-12T07:09:52.031Z,22
2023-07-12T07:11:08.144Z,16
2023-07-12T07:12:24.258Z,16
2023-07-12T07:13:40.383Z,11
2023-07-12T07:14:56.491Z,11
2023-07-12T07:16:12.600Z,11
2023-07-12T07:17:28.695Z,11
2023-07-12T07:18:44.818Z,11
2023-07-12T07:20:00.913Z,11
2023-07-12T07:21:17.147Z,11
2023-07-12T07:22:32.352Z,11
2023-07-12T07:23:48.390Z,11
2023-07-12T07:25:04.441Z,11
2023-07-12T07:26:20.495Z,11
2023-07-12T07:27:36.532Z,11
2023-07-12T07:28:52.572Z,11
2023-07-12T07:30:08.614Z,11
2023-07-12T07:31:24.661Z,11
2023-07-12T07:32:40.691Z,11
2023-07-12T07:33:56.750Z,11
2023-07-12T07:35:12.804Z,11
2023-07-12T07:36:28.840Z,16
2023-07-12T07:37:44.885Z,22
2023-07-12T07:39:00.935Z,16
2023-07-12T07:40:16.974Z,16
2023-07-12T07:41:33.041Z,22
2023-07-12T07:42:49.084Z,22
2023-07-12T07:44:05.124Z,28
2023-07-12T07:45:21.182Z,16
2023-07-12T07:46:37.227Z,22
2023-07-12T07:47:53.000Z,16
2023-07-12T07:49:09.324Z,22
2023-07-12T07:50:25.376Z,22
2023-07-12T07:51:41.429Z,22
2023-07-12T07:52:57.492Z,22
2023-07-12T07:54:13.610Z,22
2023-07-12T07:55:29.711Z,22
2023-07-12T07:56:45.827Z,16
2023-07-12T07:58:01.937Z,16
2023-07-12T07:59:18.044Z,16
2023-07-12T08:00:34.152Z,16
2023-07-12T08:01:49.272Z,16
2023-07-12T08:03:05.331Z,22
2023-07-12T08:04:21.384Z,28
2023-07-12T08:05:37.450Z,28
2023-07-12T08:06:53.501Z,28
2023-07-12T08:08:09.549Z,28
2023-07-12T08:09:25.605Z,22
2023-07-12T08:10:41.671Z,22
2023-07-12T08:11:57.709Z,22
2023-07-12T08:13:13.768Z,28
2023-07-12T08:14:29.827Z,28
2023-07-12T08:15:45.873Z,22
2023-07-12T08:17:01.930Z,16
2023-07-12T08:18:17.969Z,16
2023-07-12T08:19:34.036Z,16
2023-07-12T08:20:50.087Z,16
2023-07-12T08:22:06.139Z,16
2023-07-12T08:23:22.177Z,16
2023-07-12T08:24:38.229Z,11
2023-07-12T08:25:54.282Z,11
2023-07-12T08:28:26.398Z,16
2023-07-12T08:29:42.445Z,22
2023-07-12T08:30:58.490Z,28
2023-07-12T08:32:14.535Z,33
2023-07-12T08:33:30.657Z,33
2023-07-12T08:34:46.751Z,28
2023-07-12T08:36:02.855Z,16
2023-07-12T08:37:18.962Z,11
2023-07-12T08:38:35.077Z,11
2023-07-12T08:39:51.171Z,16
2023-07-12T08:41:07.288Z,16
2023-07-12T08:42:23.395Z,22
2023-07-12T08:43:39.485Z,33
2023-07-12T08:44:55.597Z,33
2023-07-12T08:46:11.722Z,33
2023-07-12T08:47:27.814Z,33
2023-07-12T08:48:43.939Z,28
2023-07-12T08:50:00.145Z,28
2023-07-12T08:51:15.343Z,33
2023-07-12T08:52:31.394Z,33
2023-07-12T08:53:47.439Z,33
2023-07-12T08:55:03.492Z,33
2023-07-12T08:56:19.539Z,33
2023-07-12T08:57:35.589Z,33
2023-07-12T08:58:51.647Z,33
2023-07-12T09:00:07.692Z,33
2023-07-12T09:01:23.737Z,33
2023-07-12T09:02:39.782Z,33
2023-07-12T09:03:55.834Z,28
2023-07-12T09:05:11.901Z,28
2023-07-12T09:06:27.939Z,33
2023-07-12T09:07:43.990Z,33
2023-07-12T09:09:00.032Z,39
2023-07-12T09:10:16.081Z,39
2023-07-12T09:11:32.117Z,39
2023-07-12T09:12:48.177Z,39
2023-07-12T09:14:04.199Z,39
2023-07-12T09:15:20.253Z,39
2023-07-12T09:16:36.000Z,39
2023-07-12T09:17:52.343Z,39
2023-07-12T09:19:08.381Z,39
2023-07-12T09:20:24.000Z,39
2023-07-12T09:21:40.463Z,39
2023-07-12T09:22:56.579Z,39
2023-07-12T09:24:12.667Z,39
2023-07-12T09:25:28.779Z,39
2023-07-12T09:26:44.891Z,39
2023-07-12T09:28:00.993Z,39
2023-07-12T09:29:17.097Z,33
2023-07-12T09:30:33.194Z,39
2023-07-12T09:31:49.297Z,39
2023-07-12T09:33:05.404Z,33
2023-07-12T09:34:21.506Z,33
2023-07-12T09:35:37.621Z,39
2023-07-12T09:36:53.727Z,39
2023-07-12T09:38:09.839Z,39
2023-07-12T09:39:26.032Z,33
2023-07-12T09:40:41.310Z,33
2023-07-12T09:41:57.416Z,39
2023-07-12T09:43:13.503Z,33
2023-07-12T09:44:29.615Z,39
2023-07-12T09:45:45.706Z,39
2023-07-12T09:47:01.822Z,39
2023-07-12T09:48:17.909Z,39
2023-07-12T09:49:33.999Z,45
2023-07-12T09:50:50.111Z,39
2023-07-12T09:52:06.218Z,45
2023-07-12T09:53:22.301Z,45
2023-07-12T09:54:38.406Z,45
2023-07-12T09:55:54.532Z,45
2023-07-12T09:57:10.618Z,45
2023-07-12T09:58:26.739Z,45
2023-07-12T09:59:42.843Z,45
2023-07-12T10:00:58.944Z,45
2023-07-12T10:02:15.052Z,45
2023-07-12T10:03:31.149Z,39
2023-07-12T10:04:47.269Z,39
2023-07-12T10:06:03.374Z,39
2023-07-12T10:07:19.465Z,39
2023-07-12T10:08:35.581Z,39
2023-07-12T10:09:51.690Z,45
2023-07-12T10:11:07.805Z,39
2023-07-12T10:12:24.010Z,45
2023-07-12T10:13:39.226Z,39
2023-07-12T10:14:55.271Z,33
2023-07-12T10:16:11.313Z,33
2023-07-12T10:17:27.360Z,39
2023-07-12T10:18:43.405Z,39
2023-07-12T10:19:59.463Z,28
2023-07-12T10:21:15.501Z,33
2023-07-12T10:22:31.553Z,39
2023-07-12T10:23:47.605Z,39
2023-07-12T10:25:03.650Z,39
2023-07-12T10:26:19.703Z,39
2023-07-12T10:27:35.732Z,50
2023-07-12T10:28:51.770Z,56
2023-07-12T10:30:07.837Z,56
2023-07-12T10:31:23.868Z,50
2023-07-12T10:32:39.934Z,39
2023-07-12T10:33:55.964Z,39
2023-07-12T10:35:12.018Z,33
2023-07-12T10:36:28.054Z,45
2023-07-12T10:37:44.114Z,33
2023-07-12T10:39:00.159Z,33
2023-07-12T10:40:16.204Z,33
2023-07-12T10:41:32.241Z,33
2023-07-12T10:42:48.280Z,33
2023-07-12T10:44:04.332Z,33
2023-07-12T10:45:20.461Z,33
2023-07-12T10:46:36.555Z,33
2023-07-12T10:47:52.673Z,33
2023-07-12T10:49:08.769Z,39
2023-07-12T10:50:24.887Z,45
2023-07-12T10:51:40.989Z,45
2023-07-12T10:52:57.106Z,50
2023-07-12T10:54:13.199Z,50
2023-07-12T10:55:29.323Z,45
2023-07-12T10:56:45.416Z,45
2023-07-12T10:58:01.526Z,39
2023-07-12T10:59:17.640Z,45
2023-07-12T11:00:33.741Z,50
2023-07-12T11:01:49.943Z,39
2023-07-12T11:03:05.150Z,39
2023-07-12T11:04:21.192Z,33
2023-07-12T11:05:37.238Z,39
2023-07-12T11:06:53.274Z,33
2023-07-12T11:08:09.312Z,33
2023-07-12T11:09:25.370Z,39
2023-07-12T11:10:41.424Z,39
2023-07-12T11:11:57.465Z,45
2023-07-12T11:13:13.511Z,33
2023-07-12T11:14:29.566Z,33
2023-07-12T11:15:45.617Z,39
2023-07-12T11:17:01.670Z,39
2023-07-12T11:18:17.720Z,45
2023-07-12T11:19:33.752Z,50
2023-07-12T11:20:49.805Z,56
2023-07-12T11:22:05.849Z,39
2023-07-12T11:23:21.901Z,39
2023-07-12T11:24:37.961Z,33
2023-07-12T11:25:54.019Z,73
2023-07-12T11:27:10.071Z,95
2023-07-12T11:28:26.110Z,56
2023-07-12T11:29:42.168Z,33
2023-07-12T11:30:58.202Z,45
2023-07-12T11:32:14.244Z,45
2023-07-12T11:33:30.296Z,39
2023-07-12T11:34:46.398Z,50
2023-07-12T11:36:02.518Z,50
2023-07-12T11:37:18.614Z,151
2023-07-12T11:38:34.716Z,196
2023-07-12T11:39:50.804Z,67
2023-07-12T11:41:06.912Z,45
2023-07-12T11:42:23.035Z,56
2023-07-12T11:43:39.137Z,50
2023-07-12T11:44:55.229Z,50
2023-07-12T11:46:11.339Z,61
2023-07-12T11:47:27.447Z,56
2023-07-12T11:48:43.542Z,39
2023-07-12T11:49:59.644Z,67
2023-07-12T11:51:15.865Z,135
2023-07-12T11:52:31.054Z,61
2023-07-12T11:53:47.107Z,56
2023-07-12T11:55:03.166Z,39
2023-07-12T11:56:19.203Z,39
2023-07-12T11:57:35.242Z,56
2023-07-12T11:58:51.274Z,50
2023-07-12T12:00:07.331Z,67
2023-07-12T12:01:23.363Z,50
2023-07-12T12:02:39.409Z,33
2023-07-12T12:03:55.455Z,33
2023-07-12T12:05:11.486Z,39
2023-07-12T12:06:27.522Z,45
2023-07-12T12:07:43.567Z,61
2023-07-12T12:08:59.626Z,67
2023-07-12T12:10:15.671Z,73
2023-07-12T12:11:31.708Z,61
2023-07-12T12:12:47.756Z,67
2023-07-12T12:14:03.804Z,73
2023-07-12T12:15:19.853Z,61
2023-07-12T12:16:35.897Z,50
2023-07-12T12:17:51.933Z,61
2023-07-12T12:19:07.994Z,45
2023-07-12T12:20:24.034Z,33
2023-07-12T12:21:40.068Z,39
2023-07-12T12:22:56.100Z,45
2023-07-12T12:24:12.214Z,50
2023-07-12T12:25:28.303Z,56
2023-07-12T12:26:44.396Z,50
2023-07-12T12:28:00.483Z,56
2023-07-12T12:29:16.584Z,45
2023-07-12T12:30:32.694Z,50
2023-07-12T12:31:48.788Z,67
2023-07-12T12:33:04.874Z,73
2023-07-12T12:34:20.962Z,56
2023-07-12T12:35:37.050Z,50
2023-07-12T12:36:53.152Z,50
2023-07-12T12:38:09.237Z,67
2023-07-12T12:39:25.347Z,73
2023-07-12T12:40:41.548Z,67
2023-07-12T12:41:56.809Z,67
2023-07-12T12:43:12.888Z,61
2023-07-12T12:44:28.990Z,50
2023-07-12T12:45:45.099Z,33
2023-07-12T12:47:01.189Z,33
2023-07-12T12:48:17.273Z,33
2023-07-12T12:49:33.353Z,45
2023-07-12T12:50:49.448Z,61
2023-07-12T12:52:05.542Z,61
2023-07-12T12:53:21.623Z,78
2023-07-12T12:54:37.718Z,67
2023-07-12T12:57:09.911Z,84
2023-07-12T12:58:26.010Z,78
2023-07-12T12:59:42.101Z,45
2023-07-12T13:00:58.188Z,33
2023-07-12T13:02:14.298Z,39
2023-07-12T13:03:30.399Z,45
2023-07-12T13:04:46.508Z,50
2023-07-12T13:06:02.602Z,50
2023-07-12T13:07:18.699Z,67
2023-07-12T13:08:34.791Z,67
2023-07-12T13:09:50.878Z,61
2023-07-12T13:11:06.976Z,56
2023-07-12T13:12:23.080Z,61
2023-07-12T13:13:39.282Z,67
2023-07-12T13:14:54.472Z,73
2023-07-12T13:16:10.517Z,67
2023-07-12T13:17:26.562Z,90
2023-07-12T13:18:42.586Z,84
2023-07-12T13:19:58.637Z,73
2023-07-12T13:21:14.661Z,61
2023-07-12T13:22:30.713Z,61
2023-07-12T13:23:46.750Z,56
2023-07-12T13:25:02.774Z,67
2023-07-12T13:26:18.827Z,67
2023-07-12T13:27:34.850Z,50
2023-07-12T13:28:50.903Z,50
2023-07-12T13:30:06.926Z,50
2023-07-12T13:31:22.951Z,56
2023-07-12T13:32:38.995Z,56
2023-07-12T13:33:55.012Z,67
2023-07-12T13:35:11.056Z,73
2023-07-12T13:36:27.088Z,73
2023-07-12T13:37:43.105Z,78
2023-07-12T13:38:59.143Z,73
2023-07-12T13:40:15.177Z,67
2023-07-12T13:41:31.192Z,67
2023-07-12T13:42:47.221Z,61
2023-07-12T13:44:03.253Z,56
2023-07-12T13:45:19.292Z,56
2023-07-12T13:46:35.392Z,50
2023-07-12T13:47:51.000Z,56
2023-07-12T13:49:07.566Z,56
2023-07-12T13:50:23.653Z,56
2023-07-12T13:51:39.733Z,56
2023-07-12T13:52:55.835Z,56
2023-07-12T13:54:11.930Z,50
2023-07-12T13:55:28.023Z,50
2023-07-12T13:56:44.104Z,56
2023-07-12T13:58:00.206Z,50
2023-07-12T13:59:16.300Z,50
2023-07-12T14:00:32.374Z,56
2023-07-12T14:01:48.481Z,56
2023-07-12T14:03:04.675Z,56
2023-07-12T14:04:19.865Z,56
2023-07-12T14:05:35.895Z,56
2023-07-12T14:06:51.927Z,50
2023-07-12T14:08:07.965Z,61
2023-07-12T14:09:23.996Z,61
2023-07-12T14:10:40.054Z,61
2023-07-12T14:11:56.073Z,61
2023-07-12T14:13:12.124Z,50
2023-07-12T14:14:28.147Z,56
2023-07-12T14:15:44.185Z,50
2023-07-12T14:17:00.223Z,56
2023-07-12T14:18:16.240Z,56
2023-07-12T14:19:32.277Z,56
2023-07-12T14:20:48.311Z,56
2023-07-12T14:22:04.341Z,56
2023-07-12T14:23:20.384Z,50
2023-07-12T14:24:36.422Z,39
2023-07-12T14:25:52.460Z,56
2023-07-12T14:27:08.485Z,56
2023-07-12T14:28:24.515Z,45
2023-07-12T14:29:40.530Z,50
2023-07-12T14:30:56.569Z,56
2023-07-12T14:32:12.603Z,45
2023-07-12T14:33:28.631Z,50
2023-07-12T14:34:44.661Z,39
2023-07-12T14:36:00.744Z,39
2023-07-12T14:37:16.837Z,33
2023-07-12T14:38:32.931Z,39
2023-07-12T14:39:49.017Z,45
2023-07-12T14:41:05.109Z,39
2023-07-12T14:42:21.185Z,45
2023-07-12T14:43:37.280Z,45
2023-07-12T14:44:53.381Z,39
2023-07-12T14:46:09.455Z,39
2023-07-12T14:47:25.549Z,39
2023-07-12T14:48:41.644Z,39
2023-07-12T14:49:57.716Z,39
2023-07-12T14:51:13.812Z,28
2023-07-12T14:52:30.011Z,28
2023-07-12T14:53:45.181Z,28
2023-07-12T14:55:01.216Z,33
2023-07-12T14:56:17.249Z,56
2023-07-12T14:57:33.280Z,61
2023-07-12T14:58:49.304Z,56
2023-07-12T15:00:05.342Z,56
2023-07-12T15:01:21.358Z,56
2023-07-12T15:02:37.396Z,56
2023-07-12T15:03:53.428Z,45
2023-07-12T15:05:09.459Z,50
2023-07-12T15:06:25.496Z,45
2023-07-12T15:07:41.527Z,45
2023-07-12T15:08:57.572Z,45
2023-07-12T15:10:13.588Z,45
2023-07-12T15:11:29.625Z,56
2023-07-12T15:12:45.658Z,61
2023-07-12T15:14:01.684Z,56
2023-07-12T15:15:17.713Z,50
2023-07-12T15:16:33.736Z,50
2023-07-12T15:17:49.774Z,50
2023-07-12T15:19:05.791Z,50
2023-07-12T15:20:21.814Z,50
2023-07-12T15:21:37.848Z,50
2023-07-12T15:22:53.891Z,39
2023-07-12T15:24:09.914Z,39
2023-07-12T15:25:26.004Z,22
2023-07-12T15:26:42.089Z,28
2023-07-12T15:27:58.176Z,28
2023-07-12T15:29:14.256Z,39
2023-07-12T15:30:30.329Z,56
2023-07-12T15:31:46.402Z,50
2023-07-12T15:33:02.490Z,56
2023-07-12T15:34:18.577Z,50
2023-07-12T15:35:34.658Z,50
2023-07-12T15:36:50.745Z,50
2023-07-12T15:38:06.825Z,45
2023-07-12T15:39:22.912Z,39
2023-07-12T15:40:38.986Z,39
2023-07-12T15:41:55.193Z,61
2023-07-12T15:43:10.437Z,45
2023-07-12T15:44:26.516Z,56
2023-07-12T15:45:42.601Z,50
2023-07-12T15:46:58.666Z,39
2023-07-12T15:48:14.748Z,39
2023-07-12T15:49:30.835Z,33
2023-07-12T15:50:46.928Z,33
2023-07-12T15:52:02.991Z,33
2023-07-12T15:53:19.076Z,33
2023-07-12T15:54:35.169Z,33
2023-07-12T15:55:51.250Z,33
2023-07-12T15:57:07.351Z,33
2023-07-12T15:58:23.442Z,33
2023-07-12T15:59:39.534Z,33
2023-07-12T16:00:55.620Z,33
2023-07-12T16:02:11.694Z,33
2023-07-12T16:03:27.781Z,33
2023-07-12T16:04:43.874Z,28
2023-07-12T16:05:59.955Z,28
2023-07-12T16:07:16.057Z,28
2023-07-12T16:08:32.148Z,28
2023-07-12T16:09:48.225Z,28
2023-07-12T16:11:04.312Z,28
2023-07-12T16:12:20.406Z,33
2023-07-12T16:13:36.493Z,33
2023-07-12T16:14:52.679Z,39
2023-07-12T16:16:07.865Z,39
2023-07-12T16:17:23.896Z,39
2023-07-12T16:18:39.939Z,50
2023-07-12T16:19:55.968Z,39
2023-07-12T16:21:12.000Z,39
2023-07-12T16:22:28.024Z,39
2023-07-12T16:23:44.064Z,33
2023-07-12T16:25:00.086Z,33
2023-07-12T16:26:16.131Z,33
2023-07-12T16:27:32.162Z,33
2023-07-12T16:28:48.194Z,33
2023-07-12T16:30:04.216Z,33
2023-07-12T16:31:20.253Z,39
2023-07-12T16:32:36.285Z,45
2023-07-12T16:33:52.301Z,45
2023-07-12T16:35:08.333Z,28
2023-07-12T16:36:24.359Z,39
2023-07-12T16:37:40.380Z,39
2023-07-12T16:38:56.409Z,112
2023-07-12T16:40:12.442Z,135
2023-07-12T16:41:28.472Z,258
2023-07-12T16:42:44.495Z,213
2023-07-12T16:44:00.528Z,45
2023-07-12T16:45:16.544Z,140
2023-07-12T16:46:32.567Z,123
2023-07-12T16:47:48.669Z,45
2023-07-12T16:49:04.749Z,39
2023-07-12T16:50:20.847Z,33
2023-07-12T16:51:36.931Z,33
2023-07-12T16:52:52.997Z,33
2023-07-12T16:54:09.086Z,33
2023-07-12T16:55:25.189Z,28
2023-07-12T16:56:41.266Z,33
2023-07-12T16:57:57.368Z,28
2023-07-12T16:59:13.448Z,28
2023-07-12T17:00:29.540Z,28
2023-07-12T17:01:45.622Z,28
2023-07-12T17:03:01.703Z,28
2023-07-12T17:04:17.898Z,33
2023-07-12T17:05:33.092Z,33
2023-07-12T17:06:49.123Z,33
2023-07-12T17:08:05.156Z,28
2023-07-12T17:09:21.165Z,22
2023-07-12T17:10:37.213Z,16
2023-07-12T17:11:53.228Z,22
2023-07-12T17:13:09.265Z,28
2023-07-12T17:14:25.280Z,16
2023-07-12T17:15:41.312Z,16
2023-07-12T17:16:57.360Z,16
2023-07-12T17:18:13.381Z,16
2023-07-12T17:19:29.426Z,16
2023-07-12T17:20:45.463Z,16
2023-07-12T17:22:01.488Z,11
2023-07-12T17:23:17.532Z,11
2023-07-12T17:24:33.552Z,11
2023-07-12T17:25:49.601Z,11
2023-07-12T17:27:05.631Z,11
2023-07-12T17:28:21.669Z,11
2023-07-12T17:29:37.708Z,11
2023-07-12T17:30:53.737Z,11
2023-07-12T17:32:09.769Z,11
2023-07-12T17:33:25.820Z,11
2023-07-12T17:34:41.855Z,11
2023-07-12T17:35:57.885Z,5
2023-07-12T17:37:13.969Z,5
2023-07-12T17:38:30.065Z,5
2023-07-12T17:39:46.145Z,5
2023-07-12T17:41:02.256Z,5
2023-07-12T17:42:18.340Z,5
2023-07-12T17:43:34.420Z,5
2023-07-12T17:44:50.523Z,5
2023-07-12T17:46:06.610Z,5
2023-07-12T17:47:22.702Z,11
2023-07-12T17:48:38.792Z,11
2023-07-12T17:49:54.878Z,11
2023-07-12T17:51:10.966Z,11
2023-07-12T17:52:27.053Z,11
2023-07-12T17:53:42.184Z,11
2023-07-12T17:54:58.216Z,5
2023-07-12T17:56:14.257Z,5
2023-07-12T17:57:30.306Z,5
2023-07-12T17:58:46.325Z,5
2023-07-12T18:00:02.377Z,5
2023-07-12T18:01:18.429Z,11
2023-07-12T18:02:34.462Z,11
2023-07-12T18:03:50.506Z,11
2023-07-12T18:05:06.542Z,11
2023-07-12T18:06:22.602Z,11
2023-07-12T18:07:38.635Z,11
2023-07-12T18:08:54.686Z,11
2023-07-12T18:10:10.717Z,11
2023-07-12T18:11:26.767Z,5
2023-07-12T18:12:42.805Z,5
2023-07-12T18:13:58.845Z,5
2023-07-12T18:15:14.880Z,5
2023-07-12T18:16:30.934Z,5
2023-07-12T18:17:46.978Z,5
2023-07-12T18:19:03.022Z,5
2023-07-12T18:20:19.060Z,5
2023-07-12T18:21:35.089Z,5